sensor_id;sensor_type;location;lat;lon;timestamp;P1;durP1;ratioP1;P2;durP2;ratioP2
75781;SDS011;64400;44.762;37.698;2023-02-05T00:07:05;6.85;;;4.68;;
75781;SDS011;64400;44.762;37.698;2023-02-05T00:09:55;7.93;;;5.28;;
75781;SDS011;64400;44.762;37.698;2023-02-05T00:12:49;9.13;;;6.35;;
75781;SDS011;64400;44.762;37.698;2023-02-05T00:22:19;6.80;;;4.28;;
75781;SDS011;64400;44.762;37.698;2023-02-05T00:32:02;7.60;;;5.47;;
75781;SDS011;64400;44.762;37.698;2023-02-05T00:41:30;7.10;;;4.80;;
75781;SDS011;64400;44.762;37.698;2023-02-05T00:44:17;7.90;;;5.15;;
75781;SDS011;64400;44.762;37.698;2023-02-05T00:47:03;7.23;;;4.57;;
75781;SDS011;64400;44.762;37.698;2023-02-05T00:49:53;7.57;;;4.80;;
75781;SDS011;64400;44.762;37.698;2023-02-05T00:59:11;6.78;;;3.97;;
75781;SDS011;64400;44.762;37.698;2023-02-05T01:23:08;6.40;;;3.58;;
75781;SDS011;64400;44.762;37.698;2023-02-05T01:46:39;6.15;;;3.60;;
75781;SDS011;64400;44.762;37.698;2023-02-05T01:49:33;6.32;;;4.50;;
75781;SDS011;64400;44.762;37.698;2023-02-05T01:52:21;7.10;;;4.10;;
75781;SDS011;64400;44.762;37.698;2023-02-05T02:09:15;4.93;;;2.65;;
75781;SDS011;64400;44.762;37.698;2023-02-05T02:29:13;6.20;;;4.10;;
75781;SDS011;64400;44.762;37.698;2023-02-05T02:54:13;12.27;;;7.25;;
75781;SDS011;64400;44.762;37.698;2023-02-05T02:57:02;11.02;;;6.32;;
75781;SDS011;64400;44.762;37.698;2023-02-05T03:06:51;15.10;;;7.88;;
75781;SDS011;64400;44.762;37.698;2023-02-05T03:30:03;16.50;;;11.68;;
75781;SDS011;64400;44.762;37.698;2023-02-05T03:56:45;21.75;;;14.02;;
75781;SDS011;64400;44.762;37.698;2023-02-05T03:59:37;15.82;;;8.45;;
75781;SDS011;64400;44.762;37.698;2023-02-05T04:03:17;15.18;;;8.73;;
75781;SDS011;64400;44.762;37.698;2023-02-05T04:17:29;17.73;;;8.52;;
75781;SDS011;64400;44.762;37.698;2023-02-05T04:23:36;17.27;;;9.98;;
75781;SDS011;64400;44.762;37.698;2023-02-05T04:26:23;18.52;;;10.07;;
75781;SDS011;64400;44.762;37.698;2023-02-05T05:00:24;14.45;;;7.10;;
75781;SDS011;64400;44.762;37.698;2023-02-05T05:09:49;14.23;;;8.30;;
75781;SDS011;64400;44.762;37.698;2023-02-05T05:12:34;18.20;;;10.60;;
75781;SDS011;64400;44.762;37.698;2023-02-05T05:15:17;18.70;;;10.68;;
75781;SDS011;64400;44.762;37.698;2023-02-05T05:18:01;18.98;;;11.45;;
75781;SDS011;64400;44.762;37.698;2023-02-05T05:20:49;15.93;;;9.02;;
75781;SDS011;64400;44.762;37.698;2023-02-05T05:23:35;16.23;;;9.32;;
75781;SDS011;64400;44.762;37.698;2023-02-05T05:26:27;18.98;;;10.05;;
75781;SDS011;64400;44.762;37.698;2023-02-05T05:33:14;17.42;;;9.75;;
75781;SDS011;64400;44.762;37.698;2023-02-05T05:36:35;22.48;;;14.35;;
75781;SDS011;64400;44.762;37.698;2023-02-05T05:44:34;19.35;;;10.75;;
75781;SDS011;64400;44.762;37.698;2023-02-05T05:54:42;18.30;;;10.32;;
75781;SDS011;64400;44.762;37.698;2023-02-05T05:58:25;17.90;;;10.48;;
75781;SDS011;64400;44.762;37.698;2023-02-05T06:04:58;20.15;;;10.95;;
75781;SDS011;64400;44.762;37.698;2023-02-05T06:12:08;18.70;;;10.65;;
75781;SDS011;64400;44.762;37.698;2023-02-05T06:14:50;17.58;;;10.05;;
75781;SDS011;64400;44.762;37.698;2023-02-05T06:17:56;20.63;;;10.77;;
75781;SDS011;64400;44.762;37.698;2023-02-05T06:21:40;18.83;;;10.95;;
75781;SDS011;64400;44.762;37.698;2023-02-05T06:35:51;15.23;;;8.82;;
75781;SDS011;64400;44.762;37.698;2023-02-05T06:38:26;12.68;;;7.90;;
75781;SDS011;64400;44.762;37.698;2023-02-05T07:11:53;17.92;;;9.90;;
75781;SDS011;64400;44.762;37.698;2023-02-05T07:22:36;15.43;;;8.33;;
75781;SDS011;64400;44.762;37.698;2023-02-05T07:26:11;15.52;;;9.02;;
75781;SDS011;64400;44.762;37.698;2023-02-05T07:29:48;15.52;;;8.48;;
75781;SDS011;64400;44.762;37.698;2023-02-05T07:57:10;14.05;;;9.05;;
75781;SDS011;64400;44.762;37.698;2023-02-05T08:00:14;13.88;;;8.38;;
75781;SDS011;64400;44.762;37.698;2023-02-05T08:21:47;11.55;;;7.18;;
75781;SDS011;64400;44.762;37.698;2023-02-05T08:31:40;12.43;;;7.03;;
75781;SDS011;64400;44.762;37.698;2023-02-05T08:39:00;8.50;;;5.00;;
75781;SDS011;64400;44.762;37.698;2023-02-05T08:43:30;7.90;;;4.70;;
75781;SDS011;64400;44.762;37.698;2023-02-05T08:46:02;6.90;;;4.18;;
75781;SDS011;64400;44.762;37.698;2023-02-05T08:55:58;8.18;;;5.88;;
75781;SDS011;64400;44.762;37.698;2023-02-05T08:59:15;6.68;;;4.15;;
75781;SDS011;64400;44.762;37.698;2023-02-05T09:05:13;5.90;;;3.95;;
75781;SDS011;64400;44.762;37.698;2023-02-05T09:11:45;7.95;;;4.78;;
75781;SDS011;64400;44.762;37.698;2023-02-05T09:15:03;8.75;;;6.10;;
75781;SDS011;64400;44.762;37.698;2023-02-05T09:25:20;10.63;;;6.60;;
75781;SDS011;64400;44.762;37.698;2023-02-05T09:28:35;10.27;;;6.80;;
75781;SDS011;64400;44.762;37.698;2023-02-05T09:31:39;12.43;;;6.73;;
75781;SDS011;64400;44.762;37.698;2023-02-05T09:34:58;10.93;;;6.90;;
75781;SDS011;64400;44.762;37.698;2023-02-05T09:39:25;12.60;;;8.00;;
75781;SDS011;64400;44.762;37.698;2023-02-05T09:49:41;11.13;;;7.10;;
75781;SDS011;64400;44.762;37.698;2023-02-05T09:53:32;10.40;;;6.85;;
75781;SDS011;64400;44.762;37.698;2023-02-05T09:56:18;13.20;;;8.15;;
75781;SDS011;64400;44.762;37.698;2023-02-05T09:58:48;11.90;;;7.32;;
75781;SDS011;64400;44.762;37.698;2023-02-05T10:02:36;16.48;;;9.10;;
75781;SDS011;64400;44.762;37.698;2023-02-05T10:05:23;13.00;;;7.82;;
75781;SDS011;64400;44.762;37.698;2023-02-05T10:10:49;12.43;;;7.72;;
75781;SDS011;64400;44.762;37.698;2023-02-05T10:19:17;12.02;;;7.53;;
75781;SDS011;64400;44.762;37.698;2023-02-05T10:22:16;14.20;;;9.85;;
75781;SDS011;64400;44.762;37.698;2023-02-05T11:36:23;11.43;;;6.93;;
75781;SDS011;64400;44.762;37.698;2023-02-05T11:42:21;9.90;;;6.60;;
75781;SDS011;64400;44.762;37.698;2023-02-05T11:44:52;11.20;;;6.28;;
75781;SDS011;64400;44.762;37.698;2023-02-05T11:47:52;10.88;;;6.30;;
75781;SDS011;64400;44.762;37.698;2023-02-05T11:50:24;10.30;;;6.07;;
75781;SDS011;64400;44.762;37.698;2023-02-05T11:52:54;11.93;;;6.30;;
75781;SDS011;64400;44.762;37.698;2023-02-05T11:55:32;11.20;;;6.20;;
75781;SDS011;64400;44.762;37.698;2023-02-05T11:58:03;12.57;;;7.13;;
75781;SDS011;64400;44.762;37.698;2023-02-05T12:00:36;13.77;;;7.97;;
75781;SDS011;64400;44.762;37.698;2023-02-05T12:03:21;14.68;;;9.10;;
75781;SDS011;64400;44.762;37.698;2023-02-05T12:06:25;17.25;;;9.82;;
75781;SDS011;64400;44.762;37.698;2023-02-05T12:08:57;18.83;;;10.65;;
75781;SDS011;64400;44.762;37.698;2023-02-05T12:11:45;19.85;;;11.50;;
75781;SDS011;64400;44.762;37.698;2023-02-05T12:14:41;19.45;;;11.60;;
75781;SDS011;64400;44.762;37.698;2023-02-05T12:25:35;21.83;;;12.93;;
75781;SDS011;64400;44.762;37.698;2023-02-05T12:34:34;26.88;;;16.33;;
75781;SDS011;64400;44.762;37.698;2023-02-05T12:41:57;28.58;;;15.55;;
75781;SDS011;64400;44.762;37.698;2023-02-05T12:44:36;29.27;;;17.80;;
75781;SDS011;64400;44.762;37.698;2023-02-05T12:56:03;38.33;;;16.40;;
75781;SDS011;64400;44.762;37.698;2023-02-05T13:08:51;25.17;;;14.95;;
75781;SDS011;64400;44.762;37.698;2023-02-05T13:11:40;30.05;;;18.15;;
75781;SDS011;64400;44.762;37.698;2023-02-05T13:14:51;35.13;;;19.95;;
75781;SDS011;64400;44.762;37.698;2023-02-05T13:26:50;43.75;;;25.80;;
75781;SDS011;64400;44.762;37.698;2023-02-05T13:43:16;28.73;;;16.88;;
75781;SDS011;64400;44.762;37.698;2023-02-05T13:46:32;31.70;;;16.60;;
75781;SDS011;64400;44.762;37.698;2023-02-05T13:49:30;33.78;;;19.02;;
75781;SDS011;64400;44.762;37.698;2023-02-05T14:01:05;27.63;;;15.60;;
75781;SDS011;64400;44.762;37.698;2023-02-05T14:08:34;31.60;;;16.98;;
75781;SDS011;64400;44.762;37.698;2023-02-05T14:11:06;30.30;;;16.60;;
75781;SDS011;64400;44.762;37.698;2023-02-05T14:13:37;29.48;;;15.90;;
75781;SDS011;64400;44.762;37.698;2023-02-05T14:24:02;28.30;;;16.38;;
75781;SDS011;64400;44.762;37.698;2023-02-05T14:26:51;27.75;;;16.15;;
75781;SDS011;64400;44.762;37.698;2023-02-05T14:35:02;25.40;;;14.85;;
75781;SDS011;64400;44.762;37.698;2023-02-05T14:37:41;26.13;;;15.45;;
75781;SDS011;64400;44.762;37.698;2023-02-05T14:42:49;25.85;;;13.85;;
75781;SDS011;64400;44.762;37.698;2023-02-05T14:45:28;27.13;;;14.65;;
75781;SDS011;64400;44.762;37.698;2023-02-05T14:47:56;25.90;;;14.32;;
75781;SDS011;64400;44.762;37.698;2023-02-05T14:50:26;26.00;;;14.85;;
75781;SDS011;64400;44.762;37.698;2023-02-05T14:52:59;26.85;;;15.52;;
75781;SDS011;64400;44.762;37.698;2023-02-05T14:55:34;29.30;;;15.52;;
75781;SDS011;64400;44.762;37.698;2023-02-05T14:58:07;22.58;;;14.18;;
75781;SDS011;64400;44.762;37.698;2023-02-05T15:00:50;25.92;;;14.40;;
75781;SDS011;64400;44.762;37.698;2023-02-05T15:03:21;25.92;;;14.18;;
75781;SDS011;64400;44.762;37.698;2023-02-05T15:05:54;25.13;;;13.63;;
75781;SDS011;64400;44.762;37.698;2023-02-05T15:11:17;25.23;;;13.73;;
75781;SDS011;64400;44.762;37.698;2023-02-05T15:19:34;26.70;;;15.27;;
75781;SDS011;64400;44.762;37.698;2023-02-05T15:22:04;26.38;;;14.68;;
75781;SDS011;64400;44.762;37.698;2023-02-05T15:27:14;25.15;;;14.07;;
75781;SDS011;64400;44.762;37.698;2023-02-05T15:29:50;27.67;;;15.48;;
75781;SDS011;64400;44.762;37.698;2023-02-05T15:32:34;29.10;;;16.80;;
75781;SDS011;64400;44.762;37.698;2023-02-05T15:35:13;29.35;;;15.95;;
75781;SDS011;64400;44.762;37.698;2023-02-05T15:37:48;29.52;;;16.15;;
75781;SDS011;64400;44.762;37.698;2023-02-05T15:40:28;29.92;;;17.35;;
75781;SDS011;64400;44.762;37.698;2023-02-05T15:43:11;27.00;;;15.48;;
75781;SDS011;64400;44.762;37.698;2023-02-05T15:45:59;28.52;;;15.45;;
75781;SDS011;64400;44.762;37.698;2023-02-05T15:48:34;32.05;;;17.98;;
75781;SDS011;64400;44.762;37.698;2023-02-05T15:51:22;29.95;;;16.65;;
75781;SDS011;64400;44.762;37.698;2023-02-05T15:54:00;34.10;;;19.23;;
75781;SDS011;64400;44.762;37.698;2023-02-05T15:56:34;30.75;;;18.35;;
75781;SDS011;64400;44.762;37.698;2023-02-05T16:05:00;30.77;;;16.67;;
75781;SDS011;64400;44.762;37.698;2023-02-05T16:07:43;29.98;;;16.33;;
75781;SDS011;64400;44.762;37.698;2023-02-05T16:10:17;30.65;;;16.40;;
75781;SDS011;64400;44.762;37.698;2023-02-05T16:16:01;31.33;;;17.33;;
75781;SDS011;64400;44.762;37.698;2023-02-05T16:18:48;33.70;;;18.45;;
75781;SDS011;64400;44.762;37.698;2023-02-05T16:21:30;31.05;;;15.25;;
75781;SDS011;64400;44.762;37.698;2023-02-05T16:24:15;29.23;;;15.55;;
75781;SDS011;64400;44.762;37.698;2023-02-05T16:30:02;27.15;;;14.63;;
75781;SDS011;64400;44.762;37.698;2023-02-05T16:32:38;27.83;;;14.90;;
75781;SDS011;64400;44.762;37.698;2023-02-05T16:35:20;25.65;;;14.65;;
75781;SDS011;64400;44.762;37.698;2023-02-05T16:37:54;29.15;;;15.18;;
75781;SDS011;64400;44.762;37.698;2023-02-05T16:40:31;28.17;;;15.93;;
75781;SDS011;64400;44.762;37.698;2023-02-05T16:43:14;29.42;;;15.85;;
75781;SDS011;64400;44.762;37.698;2023-02-05T16:51:30;28.42;;;15.55;;
75781;SDS011;64400;44.762;37.698;2023-02-05T16:54:02;26.20;;;14.40;;
75781;SDS011;64400;44.762;37.698;2023-02-05T16:59:35;28.88;;;14.73;;
75781;SDS011;64400;44.762;37.698;2023-02-05T17:02:21;29.15;;;15.82;;
75781;SDS011;64400;44.762;37.698;2023-02-05T17:05:03;26.75;;;14.10;;
75781;SDS011;64400;44.762;37.698;2023-02-05T17:07:57;27.20;;;14.27;;
75781;SDS011;64400;44.762;37.698;2023-02-05T17:10:30;27.05;;;13.88;;
75781;SDS011;64400;44.762;37.698;2023-02-05T17:16:19;28.30;;;15.02;;
75781;SDS011;64400;44.762;37.698;2023-02-05T17:24:08;29.00;;;16.15;;
75781;SDS011;64400;44.762;37.698;2023-02-05T17:26:38;28.98;;;15.20;;
75781;SDS011;64400;44.762;37.698;2023-02-05T17:29:13;30.90;;;16.33;;
75781;SDS011;64400;44.762;37.698;2023-02-05T17:31:46;30.17;;;15.77;;
75781;SDS011;64400;44.762;37.698;2023-02-05T17:34:15;30.45;;;16.50;;
75781;SDS011;64400;44.762;37.698;2023-02-05T17:36:43;31.83;;;17.42;;
75781;SDS011;64400;44.762;37.698;2023-02-05T17:39:11;33.67;;;16.63;;
75781;SDS011;64400;44.762;37.698;2023-02-05T17:41:42;33.42;;;17.42;;
75781;SDS011;64400;44.762;37.698;2023-02-05T17:44:28;35.55;;;18.92;;
75781;SDS011;64400;44.762;37.698;2023-02-05T17:46:58;42.95;;;21.70;;
75781;SDS011;64400;44.762;37.698;2023-02-05T17:49:33;30.42;;;17.27;;
75781;SDS011;64400;44.762;37.698;2023-02-05T17:52:04;35.45;;;18.38;;
75781;SDS011;64400;44.762;37.698;2023-02-05T17:54:36;34.80;;;17.98;;
75781;SDS011;64400;44.762;37.698;2023-02-05T17:59:42;35.17;;;18.90;;
75781;SDS011;64400;44.762;37.698;2023-02-05T18:02:11;33.28;;;18.38;;
75781;SDS011;64400;44.762;37.698;2023-02-05T18:04:44;37.42;;;20.48;;
75781;SDS011;64400;44.762;37.698;2023-02-05T18:07:29;37.38;;;19.77;;
75781;SDS011;64400;44.762;37.698;2023-02-05T18:10:09;33.03;;;17.05;;
75781;SDS011;64400;44.762;37.698;2023-02-05T18:12:43;31.70;;;16.98;;
75781;SDS011;64400;44.762;37.698;2023-02-05T18:15:14;30.65;;;16.98;;
75781;SDS011;64400;44.762;37.698;2023-02-05T18:17:45;33.67;;;17.83;;
75781;SDS011;64400;44.762;37.698;2023-02-05T18:20:14;33.25;;;17.58;;
75781;SDS011;64400;44.762;37.698;2023-02-05T18:22:48;33.22;;;15.90;;
75781;SDS011;64400;44.762;37.698;2023-02-05T18:25:20;25.45;;;13.68;;
75781;SDS011;64400;44.762;37.698;2023-02-05T18:27:50;27.88;;;14.40;;
75781;SDS011;64400;44.762;37.698;2023-02-05T18:30:21;29.85;;;16.17;;
75781;SDS011;64400;44.762;37.698;2023-02-05T18:33:06;27.80;;;15.27;;
75781;SDS011;64400;44.762;37.698;2023-02-05T18:35:35;26.33;;;14.82;;
75781;SDS011;64400;44.762;37.698;2023-02-05T18:38:07;27.73;;;14.45;;
75781;SDS011;64400;44.762;37.698;2023-02-05T18:40:38;29.48;;;15.20;;
75781;SDS011;64400;44.762;37.698;2023-02-05T18:43:08;26.38;;;13.50;;
75781;SDS011;64400;44.762;37.698;2023-02-05T18:45:37;26.35;;;14.02;;
75781;SDS011;64400;44.762;37.698;2023-02-05T18:48:07;25.65;;;14.15;;
75781;SDS011;64400;44.762;37.698;2023-02-05T18:50:35;26.75;;;14.27;;
75781;SDS011;64400;44.762;37.698;2023-02-05T18:53:04;27.70;;;14.75;;
75781;SDS011;64400;44.762;37.698;2023-02-05T18:55:33;30.20;;;14.50;;
75781;SDS011;64400;44.762;37.698;2023-02-05T18:58:04;27.35;;;14.23;;
75781;SDS011;64400;44.762;37.698;2023-02-05T19:00:45;26.83;;;13.75;;
75781;SDS011;64400;44.762;37.698;2023-02-05T19:03:21;32.75;;;14.80;;
75781;SDS011;64400;44.762;37.698;2023-02-05T19:05:53;24.02;;;13.63;;
75781;SDS011;64400;44.762;37.698;2023-02-05T19:08:27;26.27;;;14.40;;
75781;SDS011;64400;44.762;37.698;2023-02-05T19:10:56;24.13;;;13.50;;
75781;SDS011;64400;44.762;37.698;2023-02-05T19:16:04;24.48;;;13.27;;
75781;SDS011;64400;44.762;37.698;2023-02-05T19:18:43;24.33;;;13.15;;
75781;SDS011;64400;44.762;37.698;2023-02-05T19:21:13;27.75;;;13.25;;
75781;SDS011;64400;44.762;37.698;2023-02-05T19:23:47;27.80;;;14.93;;
75781;SDS011;64400;44.762;37.698;2023-02-05T19:26:21;27.63;;;15.23;;
75781;SDS011;64400;44.762;37.698;2023-02-05T19:28:54;27.08;;;15.63;;
75781;SDS011;64400;44.762;37.698;2023-02-05T19:31:26;27.52;;;15.80;;
75781;SDS011;64400;44.762;37.698;2023-02-05T19:34:07;28.55;;;15.43;;
75781;SDS011;64400;44.762;37.698;2023-02-05T19:36:45;28.30;;;16.70;;
75781;SDS011;64400;44.762;37.698;2023-02-05T19:39:13;24.65;;;13.73;;
75781;SDS011;64400;44.762;37.698;2023-02-05T19:41:42;27.90;;;16.05;;
75781;SDS011;64400;44.762;37.698;2023-02-05T19:44:14;23.10;;;13.93;;
75781;SDS011;64400;44.762;37.698;2023-02-05T19:46:46;21.05;;;12.52;;
75781;SDS011;64400;44.762;37.698;2023-02-05T19:49:17;25.70;;;14.77;;
75781;SDS011;64400;44.762;37.698;2023-02-05T19:51:47;25.25;;;15.27;;
75781;SDS011;64400;44.762;37.698;2023-02-05T19:54:25;23.50;;;13.88;;
75781;SDS011;64400;44.762;37.698;2023-02-05T19:56:55;26.75;;;15.65;;
75781;SDS011;64400;44.762;37.698;2023-02-05T19:59:24;25.00;;;14.93;;
75781;SDS011;64400;44.762;37.698;2023-02-05T20:01:53;25.58;;;14.80;;
75781;SDS011;64400;44.762;37.698;2023-02-05T20:04:26;23.35;;;13.77;;
75781;SDS011;64400;44.762;37.698;2023-02-05T20:06:57;25.92;;;15.32;;
75781;SDS011;64400;44.762;37.698;2023-02-05T20:09:26;21.20;;;13.27;;
75781;SDS011;64400;44.762;37.698;2023-02-05T20:11:55;24.50;;;13.88;;
75781;SDS011;64400;44.762;37.698;2023-02-05T20:14:30;23.77;;;13.60;;
75781;SDS011;64400;44.762;37.698;2023-02-05T20:16:58;25.55;;;14.75;;
75781;SDS011;64400;44.762;37.698;2023-02-05T20:19:29;26.05;;;14.70;;
75781;SDS011;64400;44.762;37.698;2023-02-05T20:21:57;27.40;;;16.50;;
75781;SDS011;64400;44.762;37.698;2023-02-05T20:24:26;24.83;;;13.73;;
75781;SDS011;64400;44.762;37.698;2023-02-05T20:26:54;26.48;;;13.73;;
75781;SDS011;64400;44.762;37.698;2023-02-05T20:29:23;27.80;;;16.33;;
75781;SDS011;64400;44.762;37.698;2023-02-05T20:32:10;26.42;;;15.40;;
75781;SDS011;64400;44.762;37.698;2023-02-05T20:34:38;27.13;;;16.05;;
75781;SDS011;64400;44.762;37.698;2023-02-05T20:37:11;26.23;;;15.15;;
75781;SDS011;64400;44.762;37.698;2023-02-05T20:39:42;25.95;;;14.60;;
75781;SDS011;64400;44.762;37.698;2023-02-05T20:42:11;20.65;;;11.20;;
75781;SDS011;64400;44.762;37.698;2023-02-05T20:44:41;24.17;;;13.35;;
75781;SDS011;64400;44.762;37.698;2023-02-05T20:47:11;22.88;;;11.55;;
75781;SDS011;64400;44.762;37.698;2023-02-05T20:49:49;26.63;;;14.88;;
75781;SDS011;64400;44.762;37.698;2023-02-05T20:52:20;24.45;;;14.77;;
75781;SDS011;64400;44.762;37.698;2023-02-05T20:54:49;27.13;;;15.13;;
75781;SDS011;64400;44.762;37.698;2023-02-05T20:57:17;24.30;;;14.63;;
75781;SDS011;64400;44.762;37.698;2023-02-05T20:59:46;21.65;;;12.90;;
75781;SDS011;64400;44.762;37.698;2023-02-05T21:02:16;22.70;;;12.60;;
75781;SDS011;64400;44.762;37.698;2023-02-05T21:04:50;20.77;;;12.73;;
75781;SDS011;64400;44.762;37.698;2023-02-05T21:07:19;22.20;;;12.57;;
75781;SDS011;64400;44.762;37.698;2023-02-05T21:09:51;24.63;;;14.15;;
75781;SDS011;64400;44.762;37.698;2023-02-05T21:12:21;19.20;;;11.82;;
75781;SDS011;64400;44.762;37.698;2023-02-05T21:14:54;17.80;;;10.45;;
75781;SDS011;64400;44.762;37.698;2023-02-05T21:17:24;20.65;;;11.88;;
75781;SDS011;64400;44.762;37.698;2023-02-05T21:19:56;20.65;;;12.88;;
75781;SDS011;64400;44.762;37.698;2023-02-05T21:22:24;10.98;;;6.47;;
75781;SDS011;64400;44.762;37.698;2023-02-05T21:24:52;20.55;;;11.55;;
75781;SDS011;64400;44.762;37.698;2023-02-05T21:27:20;21.73;;;13.00;;
75781;SDS011;64400;44.762;37.698;2023-02-05T21:29:50;17.77;;;10.15;;
75781;SDS011;64400;44.762;37.698;2023-02-05T21:32:18;20.45;;;12.82;;
75781;SDS011;64400;44.762;37.698;2023-02-05T21:34:47;20.10;;;13.50;;
75781;SDS011;64400;44.762;37.698;2023-02-05T21:37:15;20.02;;;12.63;;
75781;SDS011;64400;44.762;37.698;2023-02-05T21:39:43;18.20;;;11.35;;
75781;SDS011;64400;44.762;37.698;2023-02-05T21:42:12;18.27;;;10.65;;
75781;SDS011;64400;44.762;37.698;2023-02-05T21:48:28;19.25;;;12.40;;
75781;SDS011;64400;44.762;37.698;2023-02-05T21:50:56;18.60;;;11.18;;
75781;SDS011;64400;44.762;37.698;2023-02-05T21:53:26;18.67;;;11.65;;
75781;SDS011;64400;44.762;37.698;2023-02-05T21:55:54;17.90;;;11.68;;
75781;SDS011;64400;44.762;37.698;2023-02-05T21:58:22;18.77;;;12.13;;
75781;SDS011;64400;44.762;37.698;2023-02-05T22:00:53;18.08;;;10.82;;
75781;SDS011;64400;44.762;37.698;2023-02-05T22:03:21;17.23;;;11.05;;
75781;SDS011;64400;44.762;37.698;2023-02-05T22:05:49;18.63;;;11.05;;
75781;SDS011;64400;44.762;37.698;2023-02-05T22:08:17;19.50;;;11.13;;
75781;SDS011;64400;44.762;37.698;2023-02-05T22:10:46;17.17;;;10.52;;
75781;SDS011;64400;44.762;37.698;2023-02-05T22:13:14;19.35;;;11.38;;
75781;SDS011;64400;44.762;37.698;2023-02-05T22:15:48;17.33;;;10.55;;
75781;SDS011;64400;44.762;37.698;2023-02-05T22:18:17;20.08;;;10.68;;
75781;SDS011;64400;44.762;37.698;2023-02-05T22:20:45;19.33;;;11.18;;
75781;SDS011;64400;44.762;37.698;2023-02-05T22:23:14;18.08;;;10.35;;
75781;SDS011;64400;44.762;37.698;2023-02-05T22:25:44;16.50;;;8.82;;
75781;SDS011;64400;44.762;37.698;2023-02-05T22:28:13;18.33;;;10.73;;
75781;SDS011;64400;44.762;37.698;2023-02-05T22:30:41;18.23;;;10.60;;
75781;SDS011;64400;44.762;37.698;2023-02-05T22:33:09;12.10;;;6.00;;
75781;SDS011;64400;44.762;37.698;2023-02-05T22:35:38;19.83;;;11.68;;
75781;SDS011;64400;44.762;37.698;2023-02-05T22:38:06;20.88;;;11.10;;
75781;SDS011;64400;44.762;37.698;2023-02-05T22:40:34;19.80;;;11.35;;
75781;SDS011;64400;44.762;37.698;2023-02-05T22:43:01;16.52;;;9.77;;
75781;SDS011;64400;44.762;37.698;2023-02-05T22:45:36;18.23;;;11.43;;
75781;SDS011;64400;44.762;37.698;2023-02-05T22:48:04;22.08;;;12.93;;
75781;SDS011;64400;44.762;37.698;2023-02-05T22:50:38;21.25;;;12.48;;
75781;SDS011;64400;44.762;37.698;2023-02-05T22:53:07;20.77;;;12.48;;
75781;SDS011;64400;44.762;37.698;2023-02-05T22:55:37;18.52;;;10.05;;
75781;SDS011;64400;44.762;37.698;2023-02-05T22:58:06;22.35;;;12.75;;
75781;SDS011;64400;44.762;37.698;2023-02-05T23:00:34;21.85;;;11.85;;
75781;SDS011;64400;44.762;37.698;2023-02-05T23:03:02;21.50;;;12.80;;
75781;SDS011;64400;44.762;37.698;2023-02-05T23:05:30;20.23;;;11.57;;
75781;SDS011;64400;44.762;37.698;2023-02-05T23:08:00;19.48;;;11.38;;
75781;SDS011;64400;44.762;37.698;2023-02-05T23:10:28;20.08;;;11.15;;
75781;SDS011;64400;44.762;37.698;2023-02-05T23:12:56;22.73;;;10.52;;
75781;SDS011;64400;44.762;37.698;2023-02-05T23:15:24;20.05;;;10.55;;
75781;SDS011;64400;44.762;37.698;2023-02-05T23:17:51;13.45;;;6.47;;
75781;SDS011;64400;44.762;37.698;2023-02-05T23:20:20;17.38;;;9.18;;
75781;SDS011;64400;44.762;37.698;2023-02-05T23:22:52;16.85;;;10.27;;
75781;SDS011;64400;44.762;37.698;2023-02-05T23:25:26;21.08;;;11.60;;
75781;SDS011;64400;44.762;37.698;2023-02-05T23:27:54;18.92;;;11.35;;
75781;SDS011;64400;44.762;37.698;2023-02-05T23:30:23;19.05;;;11.15;;
75781;SDS011;64400;44.762;37.698;2023-02-05T23:32:50;18.48;;;10.73;;
75781;SDS011;64400;44.762;37.698;2023-02-05T23:35:20;18.73;;;10.45;;
75781;SDS011;64400;44.762;37.698;2023-02-05T23:37:48;19.15;;;10.38;;
75781;SDS011;64400;44.762;37.698;2023-02-05T23:40:16;17.88;;;11.00;;
75781;SDS011;64400;44.762;37.698;2023-02-05T23:42:50;19.65;;;11.05;;
75781;SDS011;64400;44.762;37.698;2023-02-05T23:45:18;20.77;;;11.77;;
75781;SDS011;64400;44.762;37.698;2023-02-05T23:47:46;19.35;;;11.20;;
75781;SDS011;64400;44.762;37.698;2023-02-05T23:50:20;22.00;;;12.70;;
75781;SDS011;64400;44.762;37.698;2023-02-05T23:52:48;21.20;;;12.52;;
75781;SDS011;64400;44.762;37.698;2023-02-05T23:55:16;12.48;;;6.63;;
75781;SDS011;64400;44.762;37.698;2023-02-05T23:57:44;20.17;;;11.13;;
